createdAt,value
2023-03-12T00:29:21.424Z,0
2023-03-12T00:30:01.858Z,0
2023-03-12T00:30:42.266Z,0
2023-03-12T00:31:23.004Z,0
2023-03-12T00:32:03.427Z,0
2023-03-12T00:32:44.107Z,0
2023-03-12T00:33:24.513Z,0
2023-03-12T00:34:05.013Z,0
2023-03-12T00:34:45.474Z,0
2023-03-12T00:35:26.036Z,0
2023-03-12T00:42:11.101Z,0
2023-03-12T00:42:51.583Z,0
2023-03-12T00:43:32.081Z,0
2023-03-12T00:44:12.564Z,0
2023-03-12T00:44:53.097Z,0
2023-03-12T00:45:33.568Z,0
2023-03-12T00:46:14.100Z,0
2023-03-12T00:46:54.599Z,0
2023-03-12T00:47:35.067Z,0
2023-03-12T00:48:15.533Z,0
2023-03-12T00:48:56.015Z,0
2023-03-12T00:55:41.008Z,0
2023-03-12T00:56:21.495Z,0
2023-03-12T00:57:01.950Z,0
2023-03-12T00:57:42.429Z,0
2023-03-12T00:58:22.941Z,0
2023-03-12T00:59:03.404Z,0
2023-03-12T00:59:43.903Z,0
2023-03-12T01:00:24.451Z,0
2023-03-12T01:01:04.966Z,0
2023-03-12T01:01:45.390Z,0
2023-03-12T01:02:25.858Z,0
2023-03-12T01:09:10.777Z,0
2023-03-12T01:09:51.200Z,0
2023-03-12T01:10:31.875Z,0
2023-03-12T01:11:12.555Z,0
2023-03-12T01:11:53.132Z,0
2023-03-12T01:12:34.162Z,0
2023-03-12T01:13:55.450Z,0
2023-03-12T01:20:00.795Z,0
2023-03-12T01:20:41.302Z,0
2023-03-12T01:21:21.744Z,0
2023-03-12T01:22:02.241Z,0
2023-03-12T01:22:42.727Z,0
2023-03-12T01:23:23.182Z,0
2023-03-12T01:24:03.681Z,0
2023-03-12T01:24:44.180Z,0
2023-03-12T01:25:24.676Z,0
2023-03-12T01:26:05.202Z,0
2023-03-12T01:26:45.724Z,0
2023-03-12T01:33:30.744Z,0
2023-03-12T01:34:11.233Z,0
2023-03-12T01:34:51.716Z,0
2023-03-12T01:35:32.384Z,0
2023-03-12T01:36:12.744Z,0
2023-03-12T01:36:53.197Z,0
2023-03-12T01:37:33.725Z,0
2023-03-12T01:38:14.148Z,0
2023-03-12T01:38:54.698Z,0
2023-03-12T01:39:35.191Z,0
2023-03-12T01:40:15.659Z,0
2023-03-12T01:47:00.674Z,0
2023-03-12T01:47:41.135Z,0
2023-03-12T01:48:21.620Z,0
2023-03-12T01:49:02.079Z,0
2023-03-12T01:49:42.560Z,0
2023-03-12T01:50:23.005Z,0
2023-03-12T01:51:03.462Z,0
2023-03-12T01:51:43.939Z,0
2023-03-12T01:52:24.435Z,0
2023-03-12T01:53:04.947Z,0
2023-03-12T01:53:45.474Z,0
2023-03-12T02:01:10.825Z,0
2023-03-12T02:01:51.274Z,0
2023-03-12T02:02:31.775Z,0
2023-03-12T02:03:12.241Z,0
2023-03-12T02:03:53.099Z,0
2023-03-12T02:04:33.475Z,0
2023-03-12T02:05:13.923Z,0
2023-03-12T02:05:54.406Z,0
2023-03-12T02:06:34.881Z,0
2023-03-12T02:07:15.418Z,0
2023-03-12T02:07:55.878Z,0
2023-03-12T02:14:40.860Z,0
2023-03-12T02:15:21.352Z,0
2023-03-12T02:16:01.833Z,0
2023-03-12T02:16:42.297Z,0
2023-03-12T02:17:22.830Z,0
2023-03-12T02:18:03.307Z,0
2023-03-12T02:18:43.758Z,0
2023-03-12T02:19:24.241Z,0
2023-03-12T02:20:04.719Z,0
2023-03-12T02:20:45.225Z,0
2023-03-12T02:21:25.703Z,0
2023-03-12T02:28:51.130Z,0
2023-03-12T02:29:31.623Z,0
2023-03-12T02:30:12.134Z,0
2023-03-12T02:30:52.593Z,0
2023-03-12T02:31:33.213Z,0
2023-03-12T02:32:13.612Z,0
2023-03-12T02:32:54.143Z,0
2023-03-12T02:33:34.608Z,0
2023-03-12T02:34:15.053Z,0
2023-03-12T02:34:55.638Z,0
2023-03-12T02:41:41.520Z,0
2023-03-12T02:42:22.047Z,0
2023-03-12T02:43:02.550Z,0
2023-03-12T02:43:43.034Z,0
2023-03-12T02:44:23.525Z,0
2023-03-12T02:45:04.021Z,0
2023-03-12T02:45:44.522Z,0
2023-03-12T02:46:25.129Z,0
2023-03-12T02:47:46.052Z,0
2023-03-12T02:54:31.001Z,0
2023-03-12T02:55:11.524Z,0
2023-03-12T02:55:52.018Z,0
2023-03-12T02:56:32.501Z,0
2023-03-12T02:57:13.004Z,0
2023-03-12T02:57:53.505Z,0
2023-03-12T02:58:33.985Z,0
2023-03-12T02:59:14.503Z,0
2023-03-12T02:59:55.054Z,0
2023-03-12T03:00:35.518Z,0
2023-03-12T03:01:16.002Z,0
2023-03-12T03:08:00.871Z,0
2023-03-12T03:08:41.342Z,0
2023-03-12T03:09:21.838Z,0
2023-03-12T03:10:02.319Z,0
2023-03-12T03:10:42.840Z,0
2023-03-12T03:11:23.371Z,0
2023-03-12T03:12:03.814Z,0
2023-03-12T03:12:44.357Z,0
2023-03-12T03:13:24.827Z,0
2023-03-12T03:14:05.328Z,0
2023-03-12T03:17:23.902Z,0
2023-03-12T03:18:04.435Z,0
2023-03-12T03:18:44.921Z,0
2023-03-12T03:19:25.447Z,0
2023-03-12T03:20:05.934Z,0
2023-03-12T03:20:46.451Z,0
2023-03-12T03:21:26.912Z,0
2023-03-12T03:22:47.908Z,0
2023-03-12T03:23:28.359Z,0
2023-03-12T03:24:08.841Z,0
2023-03-12T03:28:52.255Z,0
2023-03-12T03:29:32.791Z,0
2023-03-12T03:30:13.261Z,0
2023-03-12T03:30:53.788Z,0
2023-03-12T03:31:34.294Z,0
2023-03-12T03:32:14.857Z,0
2023-03-12T03:32:55.306Z,0
2023-03-12T03:33:35.774Z,0
2023-03-12T03:34:16.273Z,0
2023-03-12T03:34:56.774Z,0
2023-03-12T03:35:37.360Z,0
2023-03-12T03:36:17.706Z,0
2023-03-12T03:36:58.241Z,0
2023-03-12T03:43:43.082Z,0
2023-03-12T03:44:23.513Z,0
2023-03-12T03:45:03.996Z,0
2023-03-12T03:45:44.489Z,0
2023-03-12T03:46:25.016Z,0
2023-03-12T03:47:05.495Z,0
2023-03-12T03:47:46.019Z,0
2023-03-12T03:48:26.469Z,0
2023-03-12T03:49:06.963Z,0
2023-03-12T03:49:47.475Z,0
2023-03-12T03:50:27.930Z,0
2023-03-12T03:57:53.261Z,0
2023-03-12T03:58:33.697Z,0
2023-03-12T03:59:14.214Z,0
2023-03-12T03:59:54.676Z,0
2023-03-12T04:00:35.214Z,0
2023-03-12T04:01:15.657Z,0
2023-03-12T04:01:56.179Z,0
2023-03-12T04:02:36.628Z,0
2023-03-12T04:03:17.158Z,0
2023-03-12T04:03:57.658Z,0
2023-03-12T04:11:22.967Z,0
2023-03-12T04:12:43.971Z,0
2023-03-12T04:13:24.438Z,0
2023-03-12T04:14:04.947Z,0
2023-03-12T04:14:45.438Z,0
2023-03-12T04:15:25.926Z,0
2023-03-12T04:16:06.471Z,0
2023-03-12T04:16:46.860Z,0
2023-03-12T04:17:27.373Z,0
2023-03-12T04:18:07.903Z,0
2023-03-12T04:18:48.326Z,0
2023-03-12T04:24:53.329Z,0
2023-03-12T04:25:33.220Z,0
2023-03-12T04:26:13.658Z,0
2023-03-12T04:26:54.127Z,0
2023-03-12T04:27:34.628Z,0
2023-03-12T04:28:15.149Z,0
2023-03-12T04:28:55.633Z,0
2023-03-12T04:29:36.139Z,0
2023-03-12T04:30:16.610Z,0
2023-03-12T04:30:57.190Z,0
2023-03-12T04:31:37.642Z,0
2023-03-12T04:39:43.422Z,0
2023-03-12T04:40:23.905Z,0
2023-03-12T04:41:04.474Z,0
2023-03-12T04:41:44.904Z,0
2023-03-12T04:42:25.397Z,0
2023-03-12T04:43:05.888Z,0
2023-03-12T04:43:46.382Z,0
2023-03-12T04:44:26.859Z,0
2023-03-12T04:45:07.353Z,0
2023-03-12T04:45:47.828Z,0
2023-03-12T04:46:28.349Z,0
2023-03-12T04:53:13.213Z,0
2023-03-12T04:53:53.671Z,0
2023-03-12T04:54:34.175Z,0
2023-03-12T04:55:14.670Z,0
2023-03-12T04:55:55.142Z,0
2023-03-12T04:56:35.602Z,0
2023-03-12T04:57:16.087Z,0
2023-03-12T04:57:56.649Z,0
2023-03-12T04:58:37.051Z,0
2023-03-12T04:59:17.618Z,0
2023-03-12T04:59:58.080Z,0
2023-03-12T05:07:23.389Z,0
2023-03-12T05:08:03.876Z,0
2023-03-12T05:08:44.420Z,0
2023-03-12T05:09:24.820Z,0
2023-03-12T05:10:05.325Z,0
2023-03-12T05:10:45.819Z,0
2023-03-12T05:11:26.315Z,0
2023-03-12T05:12:06.804Z,0
2023-03-12T05:12:47.292Z,0
2023-03-12T05:13:27.774Z,0
2023-03-12T05:14:08.265Z,0
2023-03-12T05:20:53.141Z,0
2023-03-12T05:21:33.618Z,0
2023-03-12T05:22:14.143Z,0
2023-03-12T05:22:54.585Z,0
2023-03-12T05:23:35.108Z,0
2023-03-12T05:24:15.583Z,0
2023-03-12T05:24:56.069Z,0
2023-03-12T05:25:36.518Z,0
2023-03-12T05:26:17.015Z,0
2023-03-12T05:26:57.477Z,0
2023-03-12T05:27:37.970Z,0
2023-03-12T05:35:03.359Z,0
2023-03-12T05:35:43.879Z,0
2023-03-12T05:36:24.362Z,0
2023-03-12T05:37:04.807Z,0
2023-03-12T05:37:45.297Z,0
2023-03-12T05:38:25.806Z,0
2023-03-12T05:39:06.267Z,0
2023-03-12T05:39:46.796Z,0
2023-03-12T05:40:27.247Z,0
2023-03-12T05:41:07.772Z,0
2023-03-12T05:41:48.262Z,0
2023-03-12T05:48:33.061Z,4
2023-03-12T05:49:13.570Z,4
2023-03-12T05:49:54.048Z,4
2023-03-12T05:50:34.525Z,4
2023-03-12T05:51:15.039Z,8
2023-03-12T05:51:55.494Z,4
2023-03-12T05:52:35.936Z,4
2023-03-12T05:53:16.416Z,4
2023-03-12T05:53:56.963Z,4
2023-03-12T06:31:18.980Z,40
2023-03-12T06:31:59.265Z,40
2023-03-12T06:32:39.807Z,40
2023-03-12T06:33:20.865Z,40
2023-03-12T06:34:01.386Z,44
2023-03-12T06:34:41.846Z,44
2023-03-12T06:35:22.453Z,48
2023-03-12T06:36:03.883Z,48
2023-03-12T06:38:42.683Z,68
2023-03-12T06:39:22.778Z,76
2023-03-12T06:40:03.259Z,84
2023-03-12T06:40:43.735Z,88
2023-03-12T06:41:24.210Z,92
2023-03-12T06:42:04.700Z,100
2023-03-12T06:42:45.147Z,104
2023-03-12T06:43:25.701Z,108
2023-03-12T06:44:06.375Z,108
2023-03-12T06:44:46.701Z,108
2023-03-12T06:45:27.147Z,112
2023-03-12T06:51:32.163Z,164
2023-03-12T06:52:12.653Z,160
2023-03-12T06:52:53.154Z,152
2023-03-12T06:53:33.615Z,136
2023-03-12T06:54:14.145Z,128
2023-03-12T06:55:35.061Z,128
2023-03-12T06:56:15.547Z,120
2023-03-12T06:56:56.113Z,112
2023-03-12T06:57:36.543Z,104
2023-03-12T06:58:17.080Z,100
2023-03-12T07:05:42.379Z,116
2023-03-12T07:06:22.864Z,120
2023-03-12T07:07:03.351Z,124
2023-03-12T07:07:43.857Z,120
2023-03-12T07:08:24.379Z,120
2023-03-12T07:09:04.782Z,116
2023-03-12T07:09:45.254Z,112
2023-03-12T07:10:25.767Z,112
2023-03-12T07:11:06.273Z,116
2023-03-12T07:11:46.742Z,116
2023-03-12T07:19:12.107Z,88
2023-03-12T07:19:52.772Z,88
2023-03-12T07:20:33.269Z,84
2023-03-12T07:21:13.741Z,88
2023-03-12T07:21:54.215Z,96
2023-03-12T07:22:34.717Z,108
2023-03-12T07:23:15.249Z,124
2023-03-12T07:23:55.735Z,132
2023-03-12T07:24:36.179Z,132
2023-03-12T07:25:18.620Z,136
2023-03-12T07:25:57.137Z,144
2023-03-12T07:32:42.124Z,248
2023-03-12T07:33:22.743Z,316
2023-03-12T07:34:03.308Z,424
2023-03-12T07:34:43.613Z,440
2023-03-12T07:35:24.247Z,376
2023-03-12T07:36:04.736Z,304
2023-03-12T07:36:45.147Z,264
2023-03-12T07:37:25.575Z,244
2023-03-12T07:38:06.093Z,236
2023-03-12T07:38:46.453Z,240
2023-03-12T07:39:26.988Z,260
2023-03-12T07:46:52.402Z,356
2023-03-12T07:47:32.823Z,352
2023-03-12T07:48:13.203Z,364
2023-03-12T07:48:53.716Z,380
2023-03-12T07:49:34.146Z,388
2023-03-12T07:50:14.845Z,392
2023-03-12T07:50:55.147Z,396
2023-03-12T07:51:35.604Z,408
2023-03-12T07:52:16.103Z,424
2023-03-12T07:52:56.591Z,440
2023-03-12T07:53:37.067Z,436
2023-03-12T08:00:22.156Z,376
2023-03-12T08:01:02.674Z,376
2023-03-12T08:01:44.699Z,372
2023-03-12T08:02:23.649Z,332
2023-03-12T08:03:04.238Z,284
2023-03-12T08:03:44.740Z,248
2023-03-12T08:04:25.181Z,220
2023-03-12T08:05:46.600Z,252
2023-03-12T08:06:26.439Z,292
2023-03-12T08:07:09.113Z,332
2023-03-12T08:14:32.311Z,372
2023-03-12T08:15:12.720Z,340
2023-03-12T08:15:53.266Z,332
2023-03-12T08:16:33.812Z,312
2023-03-12T08:17:14.234Z,296
2023-03-12T08:17:54.686Z,276
2023-03-12T08:18:35.167Z,268
2023-03-12T08:19:15.686Z,284
2023-03-12T08:19:56.554Z,296
2023-03-12T08:20:36.654Z,296
2023-03-12T08:21:17.161Z,324
2023-03-12T08:28:02.117Z,364
2023-03-12T08:28:42.669Z,356
2023-03-12T08:29:23.199Z,368
2023-03-12T08:30:03.662Z,388
2023-03-12T08:30:44.192Z,396
2023-03-12T08:31:24.708Z,400
2023-03-12T08:32:05.780Z,408
2023-03-12T08:32:45.672Z,424
2023-03-12T08:33:26.156Z,428
2023-03-12T08:34:06.648Z,416
2023-03-12T08:34:47.168Z,408
2023-03-12T08:42:12.471Z,476
2023-03-12T08:42:53.064Z,476
2023-03-12T08:43:33.454Z,468
2023-03-12T08:44:13.967Z,488
2023-03-12T08:44:54.561Z,512
2023-03-12T08:45:35.049Z,532
2023-03-12T08:46:15.472Z,564
2023-03-12T08:46:55.932Z,576
2023-03-12T08:47:36.398Z,572
2023-03-12T08:48:16.892Z,564
2023-03-12T08:48:57.382Z,556
2023-03-12T08:54:22.239Z,560
2023-03-12T08:55:02.681Z,588
2023-03-12T08:55:43.192Z,620
2023-03-12T08:56:23.663Z,640
2023-03-12T08:57:04.142Z,656
2023-03-12T08:59:17.369Z,588
2023-03-12T08:59:57.957Z,524
2023-03-12T09:00:38.403Z,488
2023-03-12T09:01:18.843Z,468
2023-03-12T09:01:59.367Z,432
2023-03-12T09:02:39.901Z,428
2023-03-12T09:03:20.421Z,412
2023-03-12T09:04:00.831Z,416
2023-03-12T09:04:41.385Z,428
2023-03-12T09:05:21.770Z,420
2023-03-12T09:06:02.309Z,408
2023-03-12T09:12:47.271Z,448
2023-03-12T09:13:40.570Z,460
2023-03-12T09:14:50.131Z,456
2023-03-12T09:15:02.786Z,440
2023-03-12T09:15:29.283Z,460
2023-03-12T09:16:09.722Z,496
2023-03-12T09:16:50.278Z,520
2023-03-12T09:17:30.692Z,524
2023-03-12T09:18:11.179Z,544
2023-03-12T09:18:51.690Z,580
2023-03-12T09:19:32.143Z,600
2023-03-12T09:26:57.598Z,632
2023-03-12T09:27:38.165Z,576
2023-03-12T09:28:18.593Z,532
2023-03-12T09:28:59.138Z,468
2023-03-12T09:29:53.430Z,500
2023-03-12T09:30:20.307Z,520
2023-03-12T09:31:00.724Z,476
2023-03-12T09:31:41.251Z,420
2023-03-12T09:32:21.706Z,392
2023-03-12T09:33:02.199Z,388
2023-03-12T09:39:47.248Z,376
2023-03-12T09:40:27.709Z,384
2023-03-12T09:41:08.199Z,384
2023-03-12T09:41:48.678Z,404
2023-03-12T09:42:29.175Z,452
2023-03-12T09:43:09.689Z,464
2023-03-12T09:43:50.253Z,488
2023-03-12T09:44:30.771Z,528
2023-03-12T09:45:11.213Z,516
2023-03-12T09:46:32.269Z,480
2023-03-12T09:51:57.297Z,488
2023-03-12T09:52:37.710Z,508
2023-03-12T09:53:18.185Z,524
2023-03-12T09:53:58.722Z,620
2023-03-12T09:54:39.167Z,600
2023-03-12T09:55:19.672Z,568
2023-03-12T09:56:00.242Z,564
2023-03-12T09:56:40.645Z,572
2023-03-12T09:57:21.182Z,536
2023-03-12T09:58:01.685Z,528
2023-03-12T09:58:42.209Z,500
2023-03-12T10:05:27.376Z,460
2023-03-12T10:06:07.873Z,528
2023-03-12T10:06:48.346Z,532
2023-03-12T10:07:28.811Z,608
2023-03-12T10:08:23.322Z,568
2023-03-12T10:08:49.916Z,640
2023-03-12T10:09:30.418Z,688
2023-03-12T10:10:11.588Z,696
2023-03-12T10:10:52.169Z,684
2023-03-12T10:15:37.541Z,644
2023-03-12T10:16:18.148Z,640
2023-03-12T10:16:59.367Z,504
2023-03-12T10:17:39.811Z,480
2023-03-12T10:18:20.554Z,600
2023-03-12T10:19:00.969Z,532
2023-03-12T10:19:42.770Z,536
2023-03-12T10:24:28.121Z,580
2023-03-12T10:25:08.719Z,672
2023-03-12T10:25:49.895Z,600
2023-03-12T10:26:30.660Z,548
2023-03-12T10:27:11.398Z,556
2023-03-12T10:27:52.231Z,600
2023-03-12T10:34:37.697Z,608
2023-03-12T10:35:21.700Z,616
2023-03-12T10:36:00.462Z,600
2023-03-12T10:36:40.961Z,636
2023-03-12T10:37:21.995Z,608
2023-03-12T10:41:04.516Z,772
2023-03-12T10:41:44.817Z,948
2023-03-12T10:42:25.260Z,860
2023-03-12T10:43:05.765Z,868
2023-03-12T10:43:46.373Z,848
2023-03-12T10:44:26.929Z,948
2023-03-12T10:47:52.437Z,864
2023-03-12T10:48:34.088Z,920
2023-03-12T10:49:14.556Z,780
2023-03-12T10:49:55.831Z,716
2023-03-12T10:50:36.358Z,752
2023-03-12T10:51:16.856Z,800
2023-03-12T10:51:58.258Z,696
2023-03-12T10:55:22.337Z,592
2023-03-12T10:56:02.902Z,700
2023-03-12T10:56:43.618Z,648
2023-03-12T10:57:24.476Z,728
2023-03-12T10:58:05.521Z,708
2023-03-12T10:58:46.032Z,824
2023-03-12T10:59:27.141Z,624
2023-03-12T11:04:12.577Z,540
2023-03-12T11:04:53.083Z,568
2023-03-12T11:05:33.665Z,660
2023-03-12T11:06:14.765Z,596
2023-03-12T11:06:56.107Z,612
2023-03-12T11:07:36.633Z,500
2023-03-12T11:08:17.943Z,472
2023-03-12T11:12:23.219Z,496
2023-03-12T11:13:04.445Z,484
2023-03-12T11:13:44.958Z,464
2023-03-12T11:14:25.459Z,544
2023-03-12T11:15:06.813Z,596
2023-03-12T11:15:47.360Z,700
2023-03-12T11:19:15.120Z,748
2023-03-12T11:19:55.775Z,804
2023-03-12T11:20:36.857Z,660
2023-03-12T11:24:43.469Z,692
2023-03-12T11:25:25.030Z,636
2023-03-12T11:26:05.563Z,700
2023-03-12T11:26:46.296Z,824
2023-03-12T11:27:26.752Z,664
2023-03-12T11:28:07.294Z,584
2023-03-12T11:32:54.271Z,424
2023-03-12T11:33:34.812Z,440
2023-03-12T11:34:15.347Z,468
2023-03-12T11:34:56.315Z,460
2023-03-12T11:35:37.661Z,552
2023-03-12T11:38:22.196Z,716
2023-03-12T11:39:05.385Z,684
2023-03-12T11:39:46.449Z,628
2023-03-12T11:40:26.967Z,596
2023-03-12T11:43:52.204Z,564
2023-03-12T11:44:33.534Z,580
2023-03-12T11:45:14.264Z,560
2023-03-12T11:45:54.719Z,624
2023-03-12T11:46:36.268Z,708
2023-03-12T11:47:16.936Z,720
2023-03-12T11:47:57.269Z,784
2023-03-12T11:48:44.459Z,852
2023-03-12T11:49:25.973Z,940
2023-03-12T11:54:12.508Z,1516
2023-03-12T12:33:54.895Z,456
2023-03-12T12:34:35.233Z,408
2023-03-12T12:35:15.740Z,444
2023-03-12T12:35:56.329Z,452
2023-03-12T12:36:36.793Z,488
2023-03-12T12:37:17.268Z,500
2023-03-12T12:43:22.601Z,1232
2023-03-12T12:44:03.103Z,1284
2023-03-12T12:44:43.649Z,1256
2023-03-12T12:45:24.138Z,1248
2023-03-12T12:46:04.661Z,1316
2023-03-12T12:46:45.124Z,1424
2023-03-12T12:47:25.632Z,1600
2023-03-12T12:48:06.090Z,1540
2023-03-12T12:48:46.592Z,1336
2023-03-12T12:49:27.139Z,1348
2023-03-12T12:56:14.944Z,980
2023-03-12T12:56:52.894Z,964
2023-03-12T12:57:33.633Z,900
2023-03-12T12:58:14.122Z,916
2023-03-12T12:58:54.602Z,964
2023-03-12T12:59:35.142Z,964
2023-03-12T13:00:15.555Z,952
2023-03-12T13:00:56.115Z,836
2023-03-12T13:01:36.842Z,804
2023-03-12T13:02:17.116Z,776
2023-03-12T13:10:31.919Z,880
2023-03-12T13:11:18.634Z,904
2023-03-12T13:11:52.705Z,956
2023-03-12T13:12:33.228Z,952
2023-03-12T13:13:13.700Z,908
2023-03-12T13:13:55.067Z,884
2023-03-12T13:14:35.557Z,852
2023-03-12T13:15:16.157Z,804
2023-03-12T13:15:56.631Z,784
2023-03-12T13:22:41.643Z,680
2023-03-12T13:23:22.102Z,696
2023-03-12T13:24:02.580Z,712
2023-03-12T13:24:43.065Z,708
2023-03-12T13:25:23.581Z,728
2023-03-12T13:26:04.137Z,752
2023-03-12T13:26:44.677Z,828
2023-03-12T13:27:25.168Z,868
2023-03-12T13:28:05.610Z,880
2023-03-12T13:28:46.184Z,932
2023-03-12T13:29:26.652Z,968
2023-03-12T13:36:11.756Z,1092
2023-03-12T13:36:52.125Z,1076
2023-03-12T13:37:32.610Z,1028
2023-03-12T13:38:13.106Z,1000
2023-03-12T13:38:53.623Z,984
2023-03-12T13:39:34.149Z,972
2023-03-12T13:40:14.734Z,956
2023-03-12T13:40:55.159Z,904
2023-03-12T13:42:16.245Z,752
2023-03-12T13:42:56.730Z,676
2023-03-12T13:49:41.678Z,328
2023-03-12T13:50:22.247Z,336
2023-03-12T13:51:02.856Z,344
2023-03-12T13:51:43.431Z,392
2023-03-12T13:53:04.412Z,456
2023-03-12T13:53:44.888Z,436
2023-03-12T13:54:25.410Z,396
2023-03-12T13:55:05.966Z,364
2023-03-12T13:55:46.471Z,352
2023-03-12T14:02:31.542Z,536
2023-03-12T14:03:12.215Z,528
2023-03-12T14:03:52.955Z,504
2023-03-12T14:04:33.488Z,456
2023-03-12T14:05:14.071Z,416
2023-03-12T14:05:54.480Z,380
2023-03-12T14:06:35.052Z,372
2023-03-12T14:07:15.554Z,388
2023-03-12T14:07:56.060Z,384
2023-03-12T14:08:36.644Z,400
2023-03-12T14:14:01.605Z,748
2023-03-12T14:14:42.105Z,740
2023-03-12T14:15:22.563Z,736
2023-03-12T14:16:03.108Z,724
2023-03-12T14:16:43.533Z,724
2023-03-12T14:17:24.240Z,728
2023-03-12T14:18:04.677Z,744
2023-03-12T14:18:45.238Z,748
2023-03-12T14:19:25.721Z,756
2023-03-12T14:20:06.191Z,764
2023-03-12T14:20:46.741Z,768
2023-03-12T14:26:51.743Z,648
2023-03-12T14:27:32.255Z,640
2023-03-12T14:28:12.775Z,632
2023-03-12T14:28:53.252Z,640
2023-03-12T14:29:33.760Z,628
2023-03-12T14:30:14.239Z,620
2023-03-12T14:30:54.835Z,592
2023-03-12T14:31:35.272Z,560
2023-03-12T14:32:15.781Z,552
2023-03-12T14:32:56.298Z,520
2023-03-12T14:33:36.800Z,496
2023-03-12T14:39:41.819Z,492
2023-03-12T14:40:22.373Z,560
2023-03-12T14:41:03.096Z,608
2023-03-12T14:41:43.588Z,656
2023-03-12T14:42:24.063Z,692
2023-03-12T14:43:04.613Z,760
2023-03-12T14:43:45.132Z,812
2023-03-12T14:45:06.370Z,752
2023-03-12T14:51:11.765Z,448
2023-03-12T14:51:52.280Z,404
2023-03-12T14:52:32.832Z,392
2023-03-12T14:53:13.280Z,360
2023-03-12T14:53:53.999Z,324
2023-03-12T14:54:34.313Z,280
2023-03-12T14:55:14.825Z,252
2023-03-12T14:55:55.336Z,228
2023-03-12T14:56:35.814Z,212
2023-03-12T14:57:16.281Z,196
2023-03-12T14:57:56.834Z,180
2023-03-12T15:04:01.605Z,184
2023-03-12T15:04:42.082Z,184
2023-03-12T15:05:22.554Z,172
2023-03-12T15:06:03.079Z,160
2023-03-12T15:06:43.571Z,164
2023-03-12T15:07:24.125Z,168
2023-03-12T15:08:04.706Z,168
2023-03-12T15:08:45.164Z,180
2023-03-12T15:09:25.757Z,184
2023-03-12T15:10:06.185Z,196
2023-03-12T15:10:46.790Z,224
2023-03-12T15:16:51.592Z,408
2023-03-12T15:17:32.038Z,420
2023-03-12T15:18:12.594Z,412
2023-03-12T15:18:53.075Z,484
2023-03-12T15:19:33.573Z,472
2023-03-12T15:20:14.147Z,424
2023-03-12T15:20:54.615Z,420
2023-03-12T15:21:35.108Z,424
2023-03-12T15:22:15.624Z,424
2023-03-12T15:22:56.125Z,440
2023-03-12T15:23:36.709Z,436
2023-03-12T15:29:12.404Z,284
2023-03-12T15:29:52.972Z,280
2023-03-12T15:30:33.794Z,264
2023-03-12T15:31:14.474Z,276
2023-03-12T15:31:55.040Z,256
2023-03-12T15:32:35.871Z,232
2023-03-12T15:33:16.394Z,220
2023-03-12T15:33:56.959Z,200
2023-03-12T15:43:20.938Z,220
2023-03-12T15:44:01.406Z,240
2023-03-12T15:44:41.919Z,224
2023-03-12T15:45:22.504Z,236
2023-03-12T15:46:03.062Z,240
2023-03-12T15:46:43.661Z,244
2023-03-12T15:47:24.034Z,256
2023-03-12T15:48:04.499Z,260
2023-03-12T15:48:44.985Z,280
2023-03-12T15:49:25.488Z,300
2023-03-12T15:56:11.227Z,416
2023-03-12T15:56:51.767Z,412
2023-03-12T15:57:32.283Z,392
2023-03-12T15:58:12.773Z,404
2023-03-12T15:58:53.382Z,428
2023-03-12T15:59:33.839Z,420
2023-03-12T16:00:14.396Z,428
2023-03-12T16:00:54.931Z,420
2023-03-12T16:01:35.494Z,424
2023-03-12T16:09:00.947Z,372
2023-03-12T16:09:41.422Z,372
2023-03-12T16:10:21.927Z,368
2023-03-12T16:11:02.428Z,348
2023-03-12T16:11:42.917Z,340
2023-03-12T16:12:23.450Z,312
2023-03-12T16:13:03.932Z,308
2023-03-12T16:13:44.437Z,284
2023-03-12T16:14:24.937Z,276
2023-03-12T16:15:05.448Z,264
2023-03-12T16:21:50.557Z,152
2023-03-12T16:22:31.077Z,176
2023-03-12T16:23:11.589Z,188
2023-03-12T16:23:52.129Z,200
2023-03-12T16:24:32.639Z,200
2023-03-12T16:25:13.144Z,196
2023-03-12T16:26:34.172Z,200
2023-03-12T16:27:17.985Z,208
2023-03-12T16:27:55.263Z,216
2023-03-12T16:34:41.296Z,196
2023-03-12T16:35:21.779Z,180
2023-03-12T16:36:02.302Z,180
2023-03-12T16:36:42.833Z,172
2023-03-12T16:37:23.232Z,176
2023-03-12T16:38:03.752Z,172
2023-03-12T16:38:44.232Z,168
2023-03-12T16:39:24.728Z,164
2023-03-12T16:40:05.278Z,156
2023-03-12T16:40:45.793Z,156
2023-03-12T16:46:50.554Z,116
2023-03-12T16:47:31.071Z,108
2023-03-12T16:48:11.617Z,112
2023-03-12T16:48:52.106Z,104
2023-03-12T16:49:32.590Z,96
2023-03-12T16:50:13.118Z,96
2023-03-12T16:51:34.140Z,88
2023-03-12T16:52:14.641Z,84
2023-03-12T16:52:55.533Z,80
2023-03-12T17:00:20.778Z,72
2023-03-12T17:01:01.330Z,76
2023-03-12T17:01:41.831Z,76
2023-03-12T17:02:22.346Z,80
2023-03-12T17:03:02.825Z,84
2023-03-12T17:03:43.362Z,88
2023-03-12T17:04:23.894Z,88
2023-03-12T17:05:04.385Z,92
2023-03-12T17:05:44.861Z,92
2023-03-12T17:06:25.389Z,92
2023-03-12T17:07:05.896Z,84
2023-03-12T17:13:50.961Z,56
2023-03-12T17:14:31.529Z,48
2023-03-12T17:15:12.000Z,48
2023-03-12T17:15:52.579Z,40
2023-03-12T17:16:33.154Z,36
2023-03-12T17:17:13.544Z,32
2023-03-12T17:17:54.063Z,28
2023-03-12T17:18:34.576Z,28
2023-03-12T17:19:15.068Z,28
2023-03-12T17:19:55.719Z,28
2023-03-12T17:26:40.615Z,16
2023-03-12T17:27:21.124Z,16
2023-03-12T17:28:01.574Z,16
2023-03-12T17:28:42.099Z,12
2023-03-12T17:29:22.639Z,16
2023-03-12T17:30:03.160Z,12
2023-03-12T17:30:43.682Z,12
2023-03-12T17:31:24.191Z,8
2023-03-12T17:32:04.680Z,12
2023-03-12T17:32:45.202Z,12
2023-03-12T17:33:25.638Z,8
2023-03-12T17:40:10.723Z,4
2023-03-12T17:40:51.205Z,4
2023-03-12T17:41:31.728Z,0
2023-03-12T17:42:12.200Z,4
2023-03-12T17:42:52.733Z,4
2023-03-12T17:43:33.183Z,4
2023-03-12T17:44:13.693Z,4
2023-03-12T17:44:54.184Z,0
2023-03-12T17:45:34.683Z,0
2023-03-12T17:46:15.385Z,0
2023-03-12T17:53:40.852Z,0
2023-03-12T18:33:58.426Z,0
2023-03-12T18:34:38.865Z,0
2023-03-12T18:35:19.457Z,0
2023-03-12T18:35:59.924Z,0
2023-03-12T18:36:40.362Z,0
2023-03-12T18:37:20.861Z,0
2023-03-12T18:38:01.431Z,0
2023-03-12T18:38:41.925Z,0
2023-03-12T18:39:22.447Z,0
2023-03-12T18:40:02.965Z,0
2023-03-12T18:40:43.465Z,0
2023-03-12T18:47:28.508Z,0
2023-03-12T18:48:08.933Z,0
2023-03-12T18:48:49.427Z,0
2023-03-12T18:49:29.963Z,0
2023-03-12T18:50:10.454Z,0
2023-03-12T18:50:50.952Z,0
2023-03-12T18:51:31.471Z,0
2023-03-12T18:52:11.995Z,0
2023-03-12T18:53:32.956Z,0
2023-03-12T18:54:13.497Z,0
2023-03-12T19:00:58.490Z,0
2023-03-12T19:01:39.058Z,0
2023-03-12T19:02:19.466Z,0
2023-03-12T19:03:00.031Z,0
2023-03-12T19:03:40.455Z,0
2023-03-12T19:04:21.038Z,0
2023-03-12T19:05:01.470Z,0
2023-03-12T19:05:41.923Z,0
2023-03-12T19:06:22.461Z,0
2023-03-12T19:07:02.965Z,0
2023-03-12T19:07:43.453Z,0
2023-03-12T19:14:28.397Z,0
2023-03-12T19:15:08.894Z,0
2023-03-12T19:15:49.410Z,0
2023-03-12T19:16:29.896Z,0
2023-03-12T19:17:10.325Z,0
2023-03-12T19:17:50.882Z,0
2023-03-12T19:18:31.329Z,0
2023-03-12T19:19:11.825Z,0
2023-03-12T19:19:52.313Z,0
2023-03-12T19:20:32.878Z,0
2023-03-12T19:21:13.283Z,0
2023-03-12T19:26:38.148Z,0
2023-03-12T19:27:18.661Z,0
2023-03-12T19:27:59.155Z,0
2023-03-12T19:28:39.635Z,0
2023-03-12T19:29:20.135Z,0
2023-03-12T19:30:00.608Z,0
2023-03-12T19:30:41.122Z,0
2023-03-12T19:31:21.694Z,0
2023-03-12T19:32:02.111Z,0
2023-03-12T19:32:44.377Z,0
2023-03-12T19:33:23.146Z,0
2023-03-12T19:40:48.526Z,0
2023-03-12T19:41:29.051Z,0
2023-03-12T19:42:09.546Z,0
2023-03-12T19:42:50.042Z,0
2023-03-12T19:43:30.546Z,0
2023-03-12T19:44:11.130Z,0
2023-03-12T19:44:51.599Z,0
2023-03-12T19:45:32.150Z,0
2023-03-12T19:46:12.618Z,0
2023-03-12T19:46:53.106Z,0
2023-03-12T19:54:18.582Z,0
2023-03-12T19:55:04.555Z,0
2023-03-12T19:55:39.600Z,0
2023-03-12T19:56:20.119Z,0
2023-03-12T19:57:00.615Z,0
2023-03-12T19:57:41.197Z,0
2023-03-12T19:58:21.669Z,0
2023-03-12T20:00:35.236Z,0
2023-03-12T20:01:16.192Z,0
2023-03-12T20:01:56.770Z,0
2023-03-12T20:02:37.279Z,0
2023-03-12T20:03:17.870Z,0
2023-03-12T20:03:58.246Z,0
2023-03-12T20:04:38.763Z,0
2023-03-12T20:05:19.260Z,0
2023-03-12T20:12:44.838Z,0
2023-03-12T20:13:25.309Z,0
2023-03-12T20:14:05.792Z,0